createdAt,value
2022-11-25T00:00:30.156Z,33.20
2022-11-25T00:03:02.851Z,24.00
2022-11-25T00:05:35.971Z,28.42
2022-11-25T00:08:08.834Z,24.25
2022-11-25T00:10:41.985Z,32.17
2022-11-25T00:13:15.380Z,29.30
2022-11-25T00:15:49.164Z,25.93
2022-11-25T00:18:21.880Z,25.35
2022-11-25T00:20:54.981Z,24.77
2022-11-25T00:23:33.066Z,26.00
2022-11-25T00:26:11.078Z,23.35
2022-11-25T00:28:46.418Z,21.77
2022-11-25T00:31:23.565Z,21.42
2022-11-25T00:33:57.004Z,23.38
2022-11-25T00:36:36.113Z,23.10
2022-11-25T00:39:16.091Z,29.52
2022-11-25T00:42:07.303Z,23.77
2022-11-25T00:44:41.071Z,25.88
2022-11-25T00:47:22.290Z,25.35
2022-11-25T00:49:56.535Z,27.42
2022-11-25T00:52:29.720Z,24.95
2022-11-25T00:55:02.540Z,21.25
2022-11-25T00:57:36.017Z,21.47
2022-11-25T01:00:12.455Z,22.10
2022-11-25T01:02:46.123Z,22.05
2022-11-25T01:05:19.041Z,20.85
2022-11-25T01:07:53.161Z,25.70
2022-11-25T01:10:26.150Z,26.68
2022-11-25T01:12:58.819Z,22.77
2022-11-25T01:15:31.498Z,20.40
2022-11-25T01:20:37.814Z,20.97
2022-11-25T01:23:10.832Z,18.37
2022-11-25T01:25:43.752Z,19.50
2022-11-25T01:28:16.881Z,18.40
2022-11-25T01:30:51.266Z,20.02
2022-11-25T01:33:25.659Z,19.02
2022-11-25T01:35:58.566Z,16.12
2022-11-25T01:38:32.079Z,19.73
2022-11-25T01:41:05.997Z,20.00
2022-11-25T01:46:27.181Z,16.75
2022-11-25T01:49:02.982Z,22.15
2022-11-25T01:51:43.714Z,15.05
2022-11-25T01:54:20.244Z,16.60
2022-11-25T01:57:00.761Z,15.48
2022-11-25T01:59:36.772Z,19.10
2022-11-25T02:02:11.279Z,18.98
2022-11-25T02:04:46.186Z,19.00
2022-11-25T02:07:39.620Z,19.82
2022-11-25T02:10:17.628Z,19.43
2022-11-25T02:12:50.742Z,20.90
2022-11-25T02:15:25.661Z,15.18
2022-11-25T02:17:58.747Z,14.55
2022-11-25T02:20:32.203Z,16.23
2022-11-25T02:23:28.384Z,19.00
2022-11-25T02:26:03.278Z,14.58
2022-11-25T02:28:37.700Z,16.23
2022-11-25T02:31:11.304Z,18.05
2022-11-25T02:33:44.713Z,18.50
2022-11-25T02:36:20.328Z,19.57
2022-11-25T02:39:04.382Z,21.05
2022-11-25T02:41:43.299Z,20.37
2022-11-25T02:44:16.465Z,17.92
2022-11-25T02:46:49.375Z,16.45
2022-11-25T02:49:23.905Z,17.60
2022-11-25T02:51:57.091Z,17.27
2022-11-25T02:54:29.925Z,16.70
2022-11-25T02:57:05.068Z,16.48
2022-11-25T02:59:40.024Z,13.95
2022-11-25T03:02:12.814Z,15.03
2022-11-25T03:04:45.986Z,14.83
2022-11-25T03:07:19.350Z,22.05
2022-11-25T03:09:52.247Z,16.25
2022-11-25T03:12:25.771Z,17.02
2022-11-25T03:15:02.202Z,16.57
2022-11-25T03:17:35.362Z,18.60
2022-11-25T03:20:10.382Z,20.80
2022-11-25T03:22:44.582Z,22.22
2022-11-25T03:25:18.896Z,19.25
2022-11-25T03:27:53.682Z,22.35
2022-11-25T03:30:28.702Z,25.60
2022-11-25T03:33:03.334Z,18.90
2022-11-25T03:35:37.249Z,19.42
2022-11-25T03:38:10.128Z,19.05
2022-11-25T03:40:42.865Z,19.42
2022-11-25T03:43:15.761Z,19.07
2022-11-25T03:45:50.812Z,18.95
2022-11-25T03:48:23.696Z,19.23
2022-11-25T03:50:56.588Z,21.52
2022-11-25T03:53:30.209Z,16.57
2022-11-25T03:58:36.369Z,21.52
2022-11-25T04:01:09.765Z,24.07
2022-11-25T04:03:43.290Z,25.62
2022-11-25T04:06:16.416Z,22.45
2022-11-25T04:08:49.567Z,30.88
2022-11-25T04:11:24.792Z,27.20
2022-11-25T04:13:57.809Z,26.40
2022-11-25T04:16:30.847Z,26.35
2022-11-25T04:19:04.135Z,21.02
2022-11-25T04:21:37.968Z,16.65
2022-11-25T04:24:11.032Z,20.90
2022-11-25T04:26:44.044Z,21.40
2022-11-25T04:29:17.470Z,19.07
2022-11-25T04:31:50.506Z,19.30
2022-11-25T04:34:23.750Z,18.23
2022-11-25T04:36:57.660Z,20.68
2022-11-25T04:39:30.954Z,17.07
2022-11-25T04:42:22.984Z,20.37
2022-11-25T04:45:21.046Z,22.67
2022-11-25T04:47:32.228Z,22.62
2022-11-25T04:50:08.910Z,22.77
2022-11-25T04:52:44.306Z,23.73
2022-11-25T04:55:17.890Z,18.40
2022-11-25T04:57:50.826Z,22.50
2022-11-25T05:00:25.939Z,33.48
2022-11-25T05:02:59.196Z,32.05
2022-11-25T05:05:33.388Z,26.85
2022-11-25T05:08:06.973Z,24.43
2022-11-25T05:10:40.211Z,36.25
2022-11-25T05:13:13.450Z,21.97
2022-11-25T05:15:46.241Z,19.20
2022-11-25T05:18:20.391Z,23.62
2022-11-25T05:20:54.716Z,25.88
2022-11-25T05:23:28.072Z,42.75
2022-11-25T05:28:37.848Z,38.65
2022-11-25T05:31:11.053Z,16.87
2022-11-25T05:33:44.268Z,16.90
2022-11-25T05:36:17.587Z,15.25
2022-11-25T05:38:51.979Z,14.53
2022-11-25T05:41:26.496Z,17.52
2022-11-25T05:43:59.632Z,18.02
2022-11-25T05:46:33.999Z,23.47
2022-11-25T05:49:07.729Z,22.98
2022-11-25T05:51:41.377Z,22.45
2022-11-25T05:54:14.489Z,23.47
2022-11-25T05:56:47.309Z,26.00
2022-11-25T05:59:31.223Z,22.05
2022-11-25T06:02:08.878Z,19.50
2022-11-25T06:04:42.594Z,23.47
2022-11-25T06:07:15.863Z,35.92
2022-11-25T06:09:49.263Z,28.32
2022-11-25T06:12:24.451Z,29.18
2022-11-25T06:14:57.841Z,26.42
2022-11-25T06:17:33.663Z,28.70
2022-11-25T06:20:17.689Z,31.00
2022-11-25T06:22:50.915Z,27.77
2022-11-25T06:25:26.614Z,24.82
2022-11-25T06:28:15.488Z,29.27
2022-11-25T06:30:35.642Z,29.40
2022-11-25T06:33:16.069Z,30.30
2022-11-25T06:35:50.451Z,24.70
2022-11-25T06:38:23.245Z,32.95
2022-11-25T06:41:00.401Z,20.00
2022-11-25T06:43:33.802Z,23.40
2022-11-25T06:48:44.234Z,26.68
2022-11-25T06:51:19.474Z,21.90
2022-11-25T06:53:54.155Z,21.57
2022-11-25T06:56:29.569Z,25.37
2022-11-25T06:59:03.092Z,25.55
2022-11-25T07:01:36.245Z,21.80
2022-11-25T07:04:09.957Z,27.22
2022-11-25T07:06:43.050Z,24.37
2022-11-25T07:09:16.014Z,31.90
2022-11-25T07:11:49.355Z,34.67
2022-11-25T07:14:23.070Z,36.75
2022-11-25T07:16:56.563Z,33.42
2022-11-25T07:19:31.150Z,33.48
2022-11-25T07:22:04.612Z,29.72
2022-11-25T07:24:38.531Z,31.25
2022-11-25T07:27:12.073Z,32.50
2022-11-25T07:30:18.809Z,28.57
2022-11-25T07:32:20.203Z,37.35
2022-11-25T07:34:53.374Z,36.35
2022-11-25T07:37:27.974Z,38.63
2022-11-25T07:40:01.112Z,33.73
2022-11-25T07:42:34.316Z,35.73
2022-11-25T08:44:15.100Z,36.53
2022-11-25T08:46:48.909Z,34.90
2022-11-25T08:49:22.826Z,29.67
2022-11-25T08:51:55.883Z,38.65
2022-11-25T08:54:31.024Z,54.77
2022-11-25T08:57:04.053Z,39.42
2022-11-25T08:59:37.903Z,33.65
2022-11-25T09:02:13.772Z,33.55
2022-11-25T09:04:46.754Z,26.48
2022-11-25T09:07:20.142Z,31.15
2022-11-25T09:09:53.138Z,24.90
2022-11-25T09:12:26.446Z,22.43
2022-11-25T09:14:59.435Z,20.60
2022-11-25T09:17:34.627Z,22.83
2022-11-25T09:20:08.906Z,20.88
2022-11-25T09:22:42.386Z,22.50
2022-11-25T09:25:15.705Z,23.52
2022-11-25T09:27:48.673Z,14.68
2022-11-25T09:30:21.889Z,18.35
2022-11-25T09:32:57.211Z,18.20
2022-11-25T09:35:47.400Z,13.18
2022-11-25T09:38:20.873Z,19.00
2022-11-25T09:41:05.423Z,19.57
2022-11-25T09:44:22.270Z,17.52
2022-11-25T09:47:13.478Z,17.30
2022-11-25T09:49:59.235Z,18.20
2022-11-25T09:53:06.616Z,16.12
2022-11-25T09:55:46.514Z,14.87
2022-11-25T09:58:26.511Z,18.70
2022-11-25T10:01:00.165Z,37.05
2022-11-25T10:03:49.604Z,25.57
2022-11-25T10:06:30.810Z,44.40
2022-11-25T10:09:08.438Z,22.40
2022-11-25T10:11:49.112Z,31.02
2022-11-25T10:14:52.398Z,24.92
2022-11-25T10:17:51.068Z,28.47
2022-11-25T10:20:40.069Z,33.83
2022-11-25T10:23:36.731Z,29.55
2022-11-25T10:26:18.841Z,24.12
2022-11-25T10:29:02.185Z,23.02
2022-11-25T10:31:37.758Z,26.02
2022-11-25T10:34:46.028Z,22.77
2022-11-25T10:37:29.834Z,26.80
2022-11-25T10:40:02.919Z,32.10
2022-11-25T10:42:37.429Z,26.77
2022-11-25T10:45:11.823Z,28.00
2022-11-25T10:47:57.216Z,32.30
2022-11-25T10:50:59.361Z,52.73
2022-11-25T10:53:32.156Z,31.30
2022-11-25T10:56:14.973Z,36.35
2022-11-25T10:58:48.487Z,35.65
2022-11-25T11:01:28.423Z,39.10
2022-11-25T11:04:15.316Z,42.17
2022-11-25T11:06:51.582Z,33.88
2022-11-25T11:09:42.327Z,37.25
2022-11-25T11:12:30.137Z,41.05
2022-11-25T11:15:24.943Z,33.90
2022-11-25T11:18:01.041Z,39.95
2022-11-25T11:20:34.499Z,35.92
2022-11-25T11:23:14.324Z,41.30
2022-11-25T11:26:06.377Z,30.57
2022-11-25T11:28:42.403Z,36.28
2022-11-25T11:31:25.352Z,30.20
2022-11-25T11:34:05.419Z,40.10
2022-11-25T11:36:45.927Z,40.00
2022-11-25T11:40:01.261Z,36.33
2022-11-25T11:43:26.531Z,39.20
2022-11-25T11:46:40.443Z,45.47
2022-11-25T11:49:30.817Z,35.55
2022-11-25T11:52:17.653Z,46.18
2022-11-25T11:55:04.359Z,41.55
2022-11-25T11:57:48.050Z,36.40
2022-11-25T12:00:22.316Z,44.88
2022-11-25T12:03:20.562Z,43.23
2022-11-25T12:05:55.149Z,42.35
2022-11-25T12:08:50.799Z,34.08
2022-11-25T12:11:28.676Z,32.65
2022-11-25T12:14:12.688Z,35.88
2022-11-25T12:16:56.184Z,38.88
2022-11-25T12:19:34.040Z,37.28
2022-11-25T12:22:11.206Z,37.83
2022-11-25T12:24:54.487Z,33.45
2022-11-25T12:27:34.922Z,33.38
2022-11-25T12:30:22.684Z,38.45
2022-11-25T12:33:08.741Z,51.80
2022-11-25T12:36:07.210Z,108.05
2022-11-25T12:38:58.305Z,63.00
2022-11-25T12:42:06.010Z,50.20
2022-11-25T12:44:59.788Z,34.50
2022-11-25T12:47:33.052Z,41.23
2022-11-25T12:50:06.153Z,34.95
2022-11-25T12:53:00.052Z,44.20
2022-11-25T12:55:33.633Z,45.20
2022-11-25T12:58:42.572Z,37.30
2022-11-25T13:01:44.489Z,33.65
2022-11-25T13:05:39.110Z,36.13
2022-11-25T13:08:07.839Z,32.38
2022-11-25T13:10:57.295Z,29.63
2022-11-25T13:13:50.371Z,31.62
2022-11-25T13:16:25.219Z,28.65
2022-11-25T13:18:58.946Z,28.90
2022-11-25T13:21:31.894Z,23.32
2022-11-25T13:24:05.047Z,24.45
2022-11-25T13:26:41.656Z,22.27
2022-11-25T13:29:22.061Z,21.07
2022-11-25T13:32:27.946Z,24.65
2022-11-25T13:35:25.337Z,25.48
2022-11-25T13:37:58.205Z,27.73
2022-11-25T13:40:35.826Z,21.87
2022-11-25T13:43:18.731Z,32.55
2022-11-25T13:45:47.657Z,30.35
2022-11-25T13:48:28.571Z,31.25
2022-11-25T13:51:23.074Z,34.67
2022-11-25T13:54:02.655Z,29.07
2022-11-25T13:56:37.907Z,28.57
2022-11-25T13:59:18.090Z,24.60
2022-11-25T14:01:55.143Z,26.95
2022-11-25T14:04:44.990Z,30.25
2022-11-25T14:08:08.452Z,24.27
2022-11-25T14:10:57.226Z,28.65
2022-11-25T14:13:46.664Z,25.82
2022-11-25T14:16:52.604Z,29.87
2022-11-25T14:19:53.002Z,29.27
2022-11-25T14:22:43.163Z,22.32
2022-11-25T14:25:30.639Z,22.45
2022-11-25T14:28:15.316Z,39.13
2022-11-25T14:30:53.776Z,32.45
2022-11-25T14:33:31.745Z,34.70
2022-11-25T14:36:10.924Z,37.85
2022-11-25T14:39:04.942Z,27.65
2022-11-25T14:41:58.020Z,29.55
2022-11-25T14:44:36.090Z,26.37
2022-11-25T14:47:08.992Z,28.05
2022-11-25T14:50:00.185Z,25.60
2022-11-25T14:52:36.318Z,25.88
2022-11-25T14:55:11.828Z,29.50
2022-11-25T14:57:46.172Z,29.42
2022-11-25T15:00:20.061Z,28.23
2022-11-25T15:03:00.548Z,31.77
2022-11-25T15:05:41.261Z,35.15
2022-11-25T15:08:18.608Z,35.08
2022-11-25T15:11:03.038Z,22.42
2022-11-25T15:13:45.883Z,25.37
2022-11-25T15:16:35.568Z,29.75
2022-11-25T15:19:20.721Z,23.80
2022-11-25T15:22:22.472Z,25.92
2022-11-25T15:24:51.586Z,23.98
2022-11-25T15:27:29.543Z,25.15
2022-11-25T15:30:02.651Z,29.25
2022-11-25T15:32:38.355Z,24.35
2022-11-25T15:35:18.907Z,23.90
2022-11-25T15:37:53.551Z,29.37
2022-11-25T15:40:43.900Z,33.13
2022-11-25T15:43:26.708Z,35.58
2022-11-25T15:46:07.028Z,29.67
2022-11-25T15:48:46.522Z,29.55
2022-11-25T15:51:34.995Z,24.47
2022-11-25T15:54:18.736Z,30.32
2022-11-25T15:56:56.417Z,28.10
2022-11-25T16:00:01.278Z,25.27
2022-11-25T16:02:41.263Z,31.50
2022-11-25T16:05:32.277Z,23.90
2022-11-25T16:08:18.178Z,21.60
2022-11-25T16:10:57.068Z,23.15
2022-11-25T16:13:31.979Z,24.60
2022-11-25T16:16:15.025Z,25.80
2022-11-25T16:19:09.100Z,25.50
2022-11-25T16:21:56.581Z,31.35
2022-11-25T16:25:01.801Z,23.22
2022-11-25T16:27:31.636Z,23.18
2022-11-25T16:30:12.174Z,31.23
2022-11-25T16:32:45.005Z,31.23
2022-11-25T16:35:22.417Z,26.93
2022-11-25T16:37:58.923Z,25.85
2022-11-25T16:40:31.681Z,22.10
2022-11-25T16:43:04.530Z,24.45
2022-11-25T16:45:37.541Z,27.50
2022-11-25T16:48:19.697Z,22.20
2022-11-25T16:50:54.155Z,27.42
2022-11-25T16:55:58.692Z,29.80
2022-11-25T16:58:31.667Z,28.35
2022-11-25T17:01:04.476Z,25.88
2022-11-25T17:03:37.715Z,25.27
2022-11-25T17:06:22.154Z,25.62
2022-11-25T17:08:54.919Z,30.00
2022-11-25T17:11:34.602Z,36.20
2022-11-25T17:14:11.523Z,25.05
2022-11-25T17:16:44.932Z,33.88
2022-11-25T17:19:19.321Z,30.25
2022-11-25T17:21:52.351Z,39.03
2022-11-25T17:24:27.366Z,29.52
2022-11-25T17:27:03.701Z,28.30
2022-11-25T17:29:44.573Z,26.65
2022-11-25T17:32:18.161Z,34.03
2022-11-25T17:34:50.990Z,29.95
2022-11-25T17:37:25.870Z,31.90
2022-11-25T17:39:58.465Z,29.27
2022-11-25T17:42:33.223Z,29.35
2022-11-25T17:45:12.744Z,38.70
2022-11-25T17:47:46.615Z,27.42
2022-11-25T17:50:25.879Z,25.97
2022-11-25T17:52:58.521Z,31.20
2022-11-25T17:55:32.452Z,33.73
2022-11-25T17:58:06.481Z,29.07
2022-11-25T18:00:39.949Z,31.07
2022-11-25T18:03:14.968Z,29.45
2022-11-25T18:05:48.311Z,29.60
2022-11-25T18:08:21.620Z,25.05
2022-11-25T18:10:55.168Z,35.88
2022-11-25T18:13:28.284Z,29.67
2022-11-25T18:16:02.819Z,26.70
2022-11-25T18:18:36.083Z,26.17
2022-11-25T18:21:10.117Z,24.32
2022-11-25T18:23:43.992Z,31.82
2022-11-25T18:26:17.549Z,22.67
2022-11-25T18:28:51.153Z,32.00
2022-11-25T18:31:24.229Z,28.50
2022-11-25T18:33:56.884Z,35.73
2022-11-25T18:36:29.591Z,35.60
2022-11-25T18:39:02.416Z,31.68
2022-11-25T18:41:35.248Z,31.77
2022-11-25T18:44:11.010Z,29.30
2022-11-25T18:46:44.079Z,38.05
2022-11-25T18:49:17.606Z,36.30
2022-11-25T18:51:50.681Z,29.63
2022-11-25T18:56:56.385Z,32.17
2022-11-25T18:59:33.412Z,29.77
2022-11-25T19:02:12.126Z,32.20
2022-11-25T19:04:45.391Z,30.77
2022-11-25T19:07:18.121Z,32.25
2022-11-25T19:09:50.742Z,33.50
2022-11-25T19:12:23.752Z,31.62
2022-11-25T19:14:57.541Z,29.02
2022-11-25T19:17:30.242Z,30.50
2022-11-25T19:20:02.936Z,37.95
2022-11-25T19:22:35.913Z,33.98
2022-11-25T19:25:10.508Z,29.75
2022-11-25T19:27:53.725Z,41.42
2022-11-25T19:30:30.082Z,42.38
2022-11-25T19:33:04.374Z,36.28
2022-11-25T19:35:40.614Z,32.35
2022-11-25T19:38:24.012Z,33.80
2022-11-25T19:40:58.914Z,32.38
2022-11-25T19:43:31.973Z,31.45
2022-11-25T19:46:04.964Z,29.77
2022-11-25T19:48:39.852Z,27.17
2022-11-25T19:51:12.651Z,35.83
2022-11-25T19:53:45.702Z,32.17
2022-11-25T19:56:24.364Z,32.70
2022-11-25T19:58:58.153Z,39.00
2022-11-25T20:01:34.026Z,30.00
2022-11-25T20:04:07.551Z,29.82
2022-11-25T20:06:40.829Z,29.07
2022-11-25T20:09:14.709Z,29.63
2022-11-25T20:11:47.820Z,35.13
2022-11-25T20:14:21.784Z,27.67
2022-11-25T20:16:54.553Z,33.35
2022-11-25T20:19:27.259Z,37.17
2022-11-25T20:21:59.930Z,40.50
2022-11-25T20:24:33.101Z,32.08
2022-11-25T20:27:06.519Z,31.75
2022-11-25T20:29:39.434Z,30.72
2022-11-25T20:32:34.413Z,28.70
2022-11-25T20:37:41.404Z,28.95
2022-11-25T20:40:20.495Z,35.50
2022-11-25T20:42:53.790Z,29.82
2022-11-25T20:45:26.612Z,27.67
2022-11-25T20:47:59.426Z,29.00
2022-11-25T20:50:32.662Z,26.17
2022-11-25T20:53:05.602Z,27.90
2022-11-25T20:55:38.667Z,33.90
2022-11-25T20:58:34.759Z,29.35
2022-11-25T21:01:07.808Z,30.15
2022-11-25T21:03:40.770Z,29.42
2022-11-25T21:06:32.697Z,29.65
2022-11-25T21:09:06.038Z,25.27
2022-11-25T21:11:38.706Z,31.15
2022-11-25T21:14:15.570Z,23.62
2022-11-25T21:16:49.276Z,24.05
2022-11-25T21:19:21.942Z,23.18
2022-11-25T21:21:54.698Z,28.67
2022-11-25T21:24:40.413Z,32.83
2022-11-25T21:27:19.550Z,28.57
2022-11-25T21:29:54.284Z,24.87
2022-11-25T21:32:29.062Z,24.98
2022-11-25T21:35:03.486Z,23.22
2022-11-25T21:37:37.516Z,24.85
2022-11-25T21:40:29.830Z,26.33
2022-11-25T21:43:06.714Z,22.27
2022-11-25T21:45:39.876Z,22.42
2022-11-25T21:48:25.199Z,26.48
2022-11-25T21:50:59.168Z,23.77
2022-11-25T21:53:37.022Z,29.27
2022-11-25T21:58:40.524Z,24.57
2022-11-25T22:01:13.550Z,22.60
2022-11-25T22:03:46.171Z,23.50
2022-11-25T22:06:25.136Z,20.05
2022-11-25T22:08:58.717Z,21.73
2022-11-25T22:11:34.599Z,23.02
2022-11-25T22:14:17.718Z,24.32
2022-11-25T22:16:50.628Z,20.55
2022-11-25T22:19:26.292Z,21.52
2022-11-25T22:21:59.493Z,26.55
2022-11-25T22:24:34.201Z,24.80
2022-11-25T22:27:11.091Z,19.32
2022-11-25T22:29:44.035Z,20.65
2022-11-25T22:32:18.588Z,21.50
2022-11-25T22:37:25.533Z,19.70
2022-11-25T22:39:58.087Z,17.42
2022-11-25T22:42:32.857Z,16.48
2022-11-25T22:45:11.052Z,21.45
2022-11-25T22:47:46.048Z,21.57
2022-11-25T22:50:28.042Z,20.10
2022-11-25T22:53:02.379Z,17.92
2022-11-25T22:55:35.630Z,18.20
2022-11-25T22:58:08.332Z,19.55
2022-11-25T23:00:47.324Z,15.10
2022-11-25T23:03:30.473Z,20.88
2022-11-25T23:06:03.982Z,17.62
2022-11-25T23:08:37.243Z,16.60
2022-11-25T23:11:14.659Z,16.30
2022-11-25T23:13:48.988Z,18.60
2022-11-25T23:18:53.893Z,17.62
2022-11-25T23:21:30.466Z,16.23
2022-11-25T23:24:03.284Z,20.88
2022-11-25T23:26:36.245Z,18.00
2022-11-25T23:29:09.381Z,16.62
2022-11-25T23:31:42.572Z,15.13
2022-11-25T23:34:15.325Z,15.93
2022-11-25T23:36:49.950Z,17.90
2022-11-25T23:39:25.246Z,14.78
2022-11-25T23:41:58.107Z,15.10
2022-11-25T23:44:32.931Z,18.85
2022-11-25T23:47:06.911Z,19.05
2022-11-25T23:49:44.627Z,22.62
2022-11-25T23:52:24.101Z,20.95
2022-11-25T23:54:57.691Z,16.50
2022-11-25T23:57:33.842Z,18.27
